createdAt,value
2022-12-12T00:01:21.745Z,0.76
2022-12-12T00:03:49.454Z,0.79
2022-12-12T00:06:17.114Z,0.46
2022-12-12T00:08:44.654Z,0.87
2022-12-12T00:11:13.748Z,0.85
2022-12-12T00:13:41.656Z,0.62
2022-12-12T00:16:11.347Z,0.63
2022-12-12T00:18:41.258Z,0.57
2022-12-12T00:21:15.378Z,0.78
2022-12-12T00:23:43.353Z,0.82
2022-12-12T00:26:17.387Z,0.67
2022-12-12T00:28:44.949Z,0.61
2022-12-12T00:31:14.367Z,0.22
2022-12-12T00:33:43.545Z,0.57
2022-12-12T00:36:12.519Z,0.61
2022-12-12T00:38:40.292Z,0.63
2022-12-12T00:41:09.259Z,0.51
2022-12-12T00:43:36.975Z,0.37
2022-12-12T00:46:05.309Z,0.18
2022-12-12T00:48:34.444Z,0.07
2022-12-12T00:51:08.917Z,0.07
2022-12-12T00:53:37.248Z,-0.16
2022-12-12T00:56:05.838Z,-0.06
2022-12-12T00:58:34.607Z,-0.07
2022-12-12T01:01:06.394Z,-0.15
2022-12-12T01:03:37.283Z,-0.24
2022-12-12T01:06:05.658Z,-0.38
2022-12-12T01:08:33.497Z,-0.51
2022-12-12T01:11:01.084Z,-0.53
2022-12-12T01:13:29.122Z,-0.65
2022-12-12T01:15:56.899Z,-0.59
2022-12-12T01:18:24.559Z,-0.69
2022-12-12T01:20:53.549Z,-0.65
2022-12-12T01:23:21.121Z,-0.53
2022-12-12T01:25:48.696Z,-0.51
2022-12-12T01:28:16.364Z,-0.58
2022-12-12T01:30:43.957Z,-0.61
2022-12-12T01:33:11.541Z,-0.69
2022-12-12T01:35:39.144Z,-0.70
2022-12-12T01:38:08.071Z,-0.78
2022-12-12T01:40:35.923Z,-0.77
2022-12-12T01:43:03.518Z,-0.75
2022-12-12T01:46:20.217Z,-0.83
2022-12-12T01:48:53.359Z,-0.92
2022-12-12T01:51:23.274Z,-1.00
2022-12-12T01:53:58.182Z,-1.10
2022-12-12T01:56:26.441Z,-1.16
2022-12-12T01:58:55.310Z,-1.33
2022-12-12T02:01:24.182Z,-1.35
2022-12-12T02:03:51.972Z,-1.42
2022-12-12T02:06:23.467Z,-1.36
2022-12-12T02:08:55.826Z,-1.36
2022-12-12T02:11:23.455Z,-1.38
2022-12-12T02:13:51.889Z,-1.36
2022-12-12T02:16:29.782Z,-1.24
2022-12-12T02:19:07.951Z,-1.22
2022-12-12T02:21:44.194Z,-1.51
2022-12-12T02:25:01.813Z,-1.61
2022-12-12T02:28:00.474Z,-1.71
2022-12-12T02:30:41.250Z,-1.79
2022-12-12T02:33:22.556Z,-1.85
2022-12-12T02:36:00.458Z,-1.86
2022-12-12T02:38:32.425Z,-1.93
2022-12-12T02:41:10.189Z,-1.95
2022-12-12T02:43:42.763Z,-1.91
2022-12-12T02:46:16.136Z,-1.98
2022-12-12T02:48:50.643Z,-2.03
2022-12-12T02:51:20.169Z,-2.22
2022-12-12T02:53:47.839Z,-2.35
2022-12-12T02:56:48.546Z,-2.34
2022-12-12T02:59:21.743Z,-2.23
2022-12-12T03:02:30.818Z,-2.29
2022-12-12T03:05:46.223Z,-2.33
2022-12-12T03:08:31.784Z,-2.31
2022-12-12T03:11:03.446Z,-2.33
2022-12-12T03:13:38.723Z,-2.26
2022-12-12T03:16:18.940Z,-2.20
2022-12-12T03:18:57.737Z,-2.09
2022-12-12T03:21:36.419Z,-2.25
2022-12-12T03:24:07.828Z,-1.94
2022-12-12T03:26:44.292Z,-1.82
2022-12-12T03:29:16.202Z,-1.40
2022-12-12T03:31:47.898Z,-1.36
2022-12-12T03:34:20.155Z,-1.56
2022-12-12T03:36:53.162Z,-1.31
2022-12-12T03:39:27.484Z,-1.26
2022-12-12T03:41:59.328Z,-1.28
2022-12-12T03:44:39.785Z,-1.41
2022-12-12T03:47:13.218Z,-1.53
2022-12-12T03:49:46.447Z,-1.63
2022-12-12T03:52:21.578Z,-1.63
2022-12-12T03:54:54.813Z,-1.50
2022-12-12T03:57:28.555Z,-1.55
2022-12-12T04:00:02.470Z,-1.46
2022-12-12T04:02:35.928Z,-1.43
2022-12-12T04:05:14.886Z,-1.46
2022-12-12T04:07:49.521Z,-1.42
2022-12-12T04:10:34.947Z,-1.41
2022-12-12T04:13:11.925Z,-1.33
2022-12-12T04:15:52.692Z,-1.18
2022-12-12T04:18:28.010Z,-1.28
2022-12-12T04:21:33.065Z,-1.45
2022-12-12T04:24:14.184Z,-1.41
2022-12-12T04:26:47.450Z,-1.65
2022-12-12T04:29:30.266Z,-1.76
2022-12-12T04:32:01.856Z,-1.83
2022-12-12T04:34:37.987Z,-2.13
2022-12-12T04:37:07.782Z,-2.11
2022-12-12T04:39:39.590Z,-2.23
2022-12-12T04:42:11.159Z,-2.22
2022-12-12T04:44:43.425Z,-2.05
2022-12-12T04:47:12.627Z,-2.22
2022-12-12T04:49:42.404Z,-2.25
2022-12-12T04:52:13.338Z,-2.31
2022-12-12T04:54:45.828Z,-2.31
2022-12-12T04:57:21.143Z,-2.30
2022-12-12T04:59:49.724Z,-2.28
2022-12-12T05:02:23.133Z,-2.34
2022-12-12T05:04:57.172Z,-2.30
2022-12-12T05:07:39.566Z,-2.35
2022-12-12T05:10:14.309Z,-2.41
2022-12-12T05:12:44.691Z,-2.41
2022-12-12T05:15:12.907Z,-2.49
2022-12-12T05:17:44.538Z,-2.45
2022-12-12T05:20:12.512Z,-2.47
2022-12-12T05:22:40.160Z,-2.42
2022-12-12T05:25:10.036Z,-2.42
2022-12-12T05:27:38.005Z,-2.39
2022-12-12T05:30:06.936Z,-2.31
2022-12-12T05:32:34.782Z,-2.29
2022-12-12T05:35:02.441Z,-2.26
2022-12-12T05:37:30.017Z,-2.24
2022-12-12T05:39:57.613Z,-2.26
2022-12-12T05:42:26.596Z,-2.36
2022-12-12T05:44:54.176Z,-2.33
2022-12-12T05:47:21.832Z,-2.32
2022-12-12T05:49:49.465Z,-2.37
2022-12-12T05:52:17.216Z,-2.33
2022-12-12T05:54:44.851Z,-2.33
2022-12-12T05:57:12.550Z,-2.31
2022-12-12T05:59:41.456Z,-2.27
2022-12-12T06:02:09.152Z,-2.25
2022-12-12T06:04:36.778Z,-2.35
2022-12-12T06:07:04.407Z,-2.32
2022-12-12T06:09:33.315Z,-2.35
2022-12-12T06:12:00.953Z,-2.30
2022-12-12T06:14:28.668Z,-2.31
2022-12-12T06:16:58.602Z,-2.31
2022-12-12T06:19:26.254Z,-2.47
2022-12-12T06:21:53.886Z,-2.42
2022-12-12T06:24:21.434Z,-2.37
2022-12-12T06:26:49.103Z,-2.33
2022-12-12T06:29:16.743Z,-2.38
2022-12-12T06:31:44.499Z,-2.33
2022-12-12T06:34:13.467Z,-2.41
2022-12-12T06:36:41.134Z,-2.34
2022-12-12T06:39:09.714Z,-2.28
2022-12-12T06:41:37.826Z,-2.50
2022-12-12T06:44:05.762Z,-2.07
2022-12-12T06:46:33.434Z,-1.69
2022-12-12T06:49:01.114Z,-1.87
2022-12-12T06:51:33.360Z,-1.93
2022-12-12T06:54:00.953Z,-1.96
2022-12-12T06:56:28.942Z,-2.04
2022-12-12T06:58:57.044Z,-1.80
2022-12-12T07:01:25.212Z,-1.87
2022-12-12T07:03:53.906Z,-1.71
2022-12-12T07:06:23.324Z,-1.73
2022-12-12T07:08:52.670Z,-1.72
2022-12-12T07:11:22.811Z,-1.88
2022-12-12T07:13:50.800Z,-1.90
2022-12-12T07:16:20.407Z,-1.95
2022-12-12T07:18:48.549Z,-1.97
2022-12-12T07:21:18.170Z,-2.11
2022-12-12T07:23:46.094Z,-2.09
2022-12-12T07:26:17.369Z,-1.99
2022-12-12T07:28:45.058Z,-1.98
2022-12-12T07:31:14.293Z,-1.99
2022-12-12T07:33:44.377Z,-1.98
2022-12-12T07:36:13.160Z,-1.90
2022-12-12T07:38:41.043Z,-1.88
2022-12-12T07:41:10.450Z,-1.68
2022-12-12T07:43:43.700Z,-1.60
2022-12-12T07:46:16.195Z,-1.65
2022-12-12T07:48:44.558Z,-1.65
2022-12-12T07:51:13.324Z,-1.69
2022-12-12T07:53:41.304Z,-1.74
2022-12-12T07:56:10.803Z,-1.87
2022-12-12T07:58:39.877Z,-1.69
2022-12-12T08:01:14.928Z,-1.54
2022-12-12T08:03:43.171Z,-1.45
2022-12-12T08:06:11.094Z,-1.41
2022-12-12T08:08:39.083Z,-1.49
2022-12-12T08:11:07.971Z,-1.48
2022-12-12T08:13:36.669Z,-1.40
2022-12-12T08:16:08.080Z,-1.40
2022-12-12T08:18:36.327Z,-1.35
2022-12-12T08:21:08.068Z,-1.36
2022-12-12T08:23:36.803Z,-1.17
2022-12-12T08:26:06.882Z,-1.32
2022-12-12T08:28:34.453Z,-1.11
2022-12-12T08:31:02.175Z,-1.05
2022-12-12T08:33:31.327Z,-1.11
2022-12-12T08:35:58.967Z,-1.10
2022-12-12T08:38:26.765Z,-1.14
2022-12-12T08:40:54.402Z,-1.15
2022-12-12T08:43:21.960Z,-1.13
2022-12-12T08:45:49.582Z,-1.13
2022-12-12T08:48:17.218Z,-1.06
2022-12-12T08:50:46.209Z,-1.04
2022-12-12T08:53:13.856Z,-1.02
2022-12-12T08:55:42.218Z,-1.05
2022-12-12T08:58:09.873Z,-0.90
2022-12-12T09:00:37.637Z,-1.01
2022-12-12T09:03:05.661Z,-0.90
2022-12-12T09:05:33.311Z,-0.86
2022-12-12T09:08:02.321Z,-0.74
2022-12-12T09:10:30.465Z,-0.76
2022-12-12T09:12:58.176Z,-0.57
2022-12-12T09:15:25.796Z,-0.35
2022-12-12T09:17:53.412Z,-0.03
2022-12-12T09:20:21.005Z,0.03
2022-12-12T09:22:48.621Z,0.03
2022-12-12T09:25:17.659Z,-0.06
2022-12-12T09:27:45.270Z,-0.08
2022-12-12T09:30:13.820Z,-0.14
2022-12-12T09:32:45.239Z,0.21
2022-12-12T09:37:41.103Z,0.36
2022-12-12T09:40:12.046Z,0.74
2022-12-12T09:42:48.907Z,0.84
2022-12-12T09:45:17.477Z,1.13
2022-12-12T09:47:48.495Z,1.20
2022-12-12T09:50:24.351Z,1.32
2022-12-12T09:52:53.596Z,1.56
2022-12-12T09:55:35.583Z,1.72
2022-12-12T09:58:09.695Z,1.63
2022-12-12T10:00:41.093Z,1.82
2022-12-12T10:03:28.938Z,1.93
2022-12-12T10:06:28.520Z,1.96
2022-12-12T10:09:07.220Z,1.61
2022-12-12T10:11:54.811Z,1.94
2022-12-12T10:14:28.929Z,2.07
2022-12-12T10:16:59.539Z,2.17
2022-12-12T10:19:31.194Z,1.69
2022-12-12T10:22:05.464Z,2.17
2022-12-12T10:24:38.080Z,2.63
2022-12-12T10:27:11.385Z,2.97
2022-12-12T10:29:42.461Z,3.08
2022-12-12T10:32:22.035Z,3.03
2022-12-12T10:35:03.360Z,2.82
2022-12-12T10:37:42.564Z,2.02
2022-12-12T10:40:25.220Z,2.24
2022-12-12T10:42:58.908Z,2.65
2022-12-12T10:45:49.221Z,2.96
2022-12-12T10:48:16.932Z,2.98
2022-12-12T10:50:46.067Z,2.77
2022-12-12T10:53:14.044Z,2.99
2022-12-12T10:55:48.846Z,2.80
2022-12-12T10:58:18.154Z,2.52
2022-12-12T11:00:49.526Z,2.89
2022-12-12T11:03:26.482Z,2.77
2022-12-12T11:05:55.027Z,2.65
2022-12-12T11:08:27.880Z,2.52
2022-12-12T11:11:08.320Z,2.49
2022-12-12T11:13:47.250Z,2.63
2022-12-12T11:16:19.488Z,2.77
2022-12-12T11:19:02.362Z,2.98
2022-12-12T11:21:32.655Z,2.78
2022-12-12T11:24:01.461Z,2.67
2022-12-12T11:26:30.111Z,2.52
2022-12-12T11:29:00.792Z,2.71
2022-12-12T11:31:35.273Z,2.72
2022-12-12T11:34:06.807Z,2.70
2022-12-12T11:36:37.324Z,2.67
2022-12-12T11:39:16.325Z,2.50
2022-12-12T11:41:59.321Z,1.61
2022-12-12T11:44:31.518Z,1.58
2022-12-12T11:47:21.326Z,1.86
2022-12-12T11:49:50.776Z,2.03
2022-12-12T11:52:20.237Z,1.95
2022-12-12T11:54:48.109Z,2.06
2022-12-12T11:57:30.169Z,2.19
2022-12-12T12:00:12.061Z,2.56
2022-12-12T12:03:18.716Z,2.68
2022-12-12T12:06:00.544Z,2.69
2022-12-12T12:08:41.928Z,2.84
2022-12-12T12:11:20.387Z,2.93
2022-12-12T12:14:03.543Z,3.22
2022-12-12T12:16:41.499Z,3.87
2022-12-12T12:19:16.931Z,4.06
2022-12-12T12:21:58.192Z,4.31
2022-12-12T12:24:50.249Z,4.75
2022-12-12T12:27:26.913Z,5.14
2022-12-12T12:30:30.351Z,5.31
2022-12-12T12:33:12.528Z,4.47
2022-12-12T12:35:54.111Z,4.61
2022-12-12T12:38:27.707Z,4.36
2022-12-12T12:41:20.614Z,4.60
2022-12-12T12:44:02.401Z,4.64
2022-12-12T12:46:40.751Z,3.43
2022-12-12T12:49:17.637Z,3.57
2022-12-12T12:51:50.925Z,3.12
2022-12-12T12:54:25.143Z,3.42
2022-12-12T12:56:59.830Z,3.05
2022-12-12T12:59:34.096Z,3.07
2022-12-12T13:02:10.816Z,2.75
2022-12-12T13:04:46.612Z,2.38
2022-12-12T13:07:22.877Z,2.83
2022-12-12T13:09:58.062Z,2.62
2022-12-12T13:12:30.635Z,2.78
2022-12-12T13:15:03.095Z,2.22
2022-12-12T13:17:45.267Z,2.11
2022-12-12T13:20:17.106Z,2.50
2022-12-12T13:22:54.851Z,2.81
2022-12-12T13:25:34.157Z,2.58
2022-12-12T13:28:06.885Z,2.32
2022-12-12T13:30:49.670Z,2.36
2022-12-12T13:33:37.616Z,2.50
2022-12-12T13:36:13.600Z,3.21
2022-12-12T13:38:46.430Z,3.02
2022-12-12T13:41:15.392Z,2.89
2022-12-12T13:43:47.120Z,2.62
2022-12-12T13:46:37.013Z,2.64
2022-12-12T13:49:29.570Z,3.98
2022-12-12T13:52:29.203Z,4.23
2022-12-12T13:55:19.074Z,3.91
2022-12-12T13:58:33.055Z,2.85
2022-12-12T14:01:40.122Z,2.73
2022-12-12T14:04:26.171Z,3.49
2022-12-12T14:07:01.738Z,2.92
2022-12-12T14:09:47.051Z,4.06
2022-12-12T14:12:21.983Z,3.18
2022-12-12T14:14:58.210Z,2.02
2022-12-12T14:17:30.157Z,2.07
2022-12-12T14:19:59.916Z,3.26
2022-12-12T14:22:28.336Z,3.08
2022-12-12T14:25:08.443Z,2.56
2022-12-12T14:28:03.209Z,2.36
2022-12-12T14:31:18.572Z,1.91
2022-12-12T14:34:18.140Z,1.62
2022-12-12T14:37:22.526Z,1.48
2022-12-12T14:40:00.340Z,1.40
2022-12-12T14:43:19.777Z,1.42
2022-12-12T14:45:27.189Z,1.35
2022-12-12T14:48:14.977Z,1.45
2022-12-12T14:50:48.904Z,1.26
2022-12-12T14:53:19.812Z,1.17
2022-12-12T14:55:53.540Z,1.20
2022-12-12T14:58:23.592Z,1.20
2022-12-12T15:00:53.879Z,1.18
2022-12-12T15:03:27.332Z,1.06
2022-12-12T15:06:31.248Z,1.02
2022-12-12T15:09:09.555Z,1.14
2022-12-12T15:11:37.228Z,1.13
2022-12-12T15:14:05.262Z,1.13
2022-12-12T15:16:46.063Z,1.10
2022-12-12T15:19:19.375Z,1.03
2022-12-12T15:21:48.874Z,1.09
2022-12-12T15:24:22.712Z,0.93
2022-12-12T15:26:52.718Z,0.81
2022-12-12T15:29:23.891Z,0.77
2022-12-12T15:31:59.649Z,0.70
2022-12-12T15:34:33.393Z,0.63
2022-12-12T15:37:27.308Z,0.58
2022-12-12T15:40:21.160Z,0.48
2022-12-12T15:42:54.358Z,0.33
2022-12-12T15:45:26.836Z,0.09
2022-12-12T15:47:56.597Z,-0.13
2022-12-12T15:50:28.217Z,-0.48
2022-12-12T15:53:04.367Z,-0.48
2022-12-12T15:55:32.896Z,-0.55
2022-12-12T15:58:00.686Z,-0.56
2022-12-12T16:00:33.252Z,-0.63
2022-12-12T16:03:03.990Z,-0.79
2022-12-12T16:05:33.586Z,-0.79
2022-12-12T16:08:38.222Z,-0.76
2022-12-12T16:11:08.323Z,-0.92
2022-12-12T16:13:38.438Z,-1.01
2022-12-12T16:16:43.429Z,-1.11
2022-12-12T16:19:37.137Z,-1.15
2022-12-12T16:22:06.599Z,-1.10
2022-12-12T16:24:46.787Z,-1.07
2022-12-12T16:27:15.451Z,-1.27
2022-12-12T16:29:43.282Z,-1.48
2022-12-12T16:32:14.776Z,-1.61
2022-12-12T16:34:42.990Z,-1.62
2022-12-12T16:37:15.139Z,-1.65
2022-12-12T16:39:44.193Z,-1.62
2022-12-12T16:42:16.240Z,-1.70
2022-12-12T16:44:44.704Z,-1.74
2022-12-12T16:47:16.788Z,-1.72
2022-12-12T16:49:44.708Z,-1.81
2022-12-12T16:52:14.298Z,-1.85
2022-12-12T16:54:42.084Z,-1.86
2022-12-12T16:57:11.248Z,-1.95
2022-12-12T16:59:39.374Z,-1.96
2022-12-12T17:02:18.331Z,-1.94
2022-12-12T17:04:45.924Z,-1.91
2022-12-12T17:07:13.867Z,-1.98
2022-12-12T17:09:41.532Z,-2.03
2022-12-12T17:12:11.636Z,-2.02
2022-12-12T17:14:40.595Z,-2.11
2022-12-12T17:17:08.622Z,-2.04
2022-12-12T17:19:36.378Z,-2.19
2022-12-12T17:22:04.716Z,-2.38
2022-12-12T17:24:34.623Z,-2.44
2022-12-12T17:27:02.451Z,-2.44
2022-12-12T17:29:30.031Z,-2.47
2022-12-12T17:31:59.170Z,-2.48
2022-12-12T17:34:26.881Z,-2.52
2022-12-12T17:36:54.503Z,-2.46
2022-12-12T17:39:22.865Z,-2.45
2022-12-12T17:41:50.487Z,-2.50
2022-12-12T17:44:18.378Z,-2.45
2022-12-12T17:46:46.149Z,-2.67
2022-12-12T17:49:15.037Z,-2.72
2022-12-12T17:51:42.770Z,-2.79
2022-12-12T17:54:10.494Z,-2.81
2022-12-12T17:56:38.189Z,-2.88
2022-12-12T17:59:08.182Z,-2.82
2022-12-12T18:01:36.294Z,-2.87
2022-12-12T18:04:05.395Z,-3.05
2022-12-12T18:06:35.974Z,-3.01
2022-12-12T18:09:04.891Z,-2.99
2022-12-12T18:11:35.605Z,-3.00
2022-12-12T18:14:04.963Z,-3.02
2022-12-12T18:16:34.302Z,-2.99
2022-12-12T18:19:03.405Z,-3.13
2022-12-12T18:21:59.639Z,-3.21
2022-12-12T18:24:23.779Z,-3.22
2022-12-12T18:26:52.862Z,-3.24
2022-12-12T18:29:21.020Z,-3.28
2022-12-12T18:31:48.810Z,-3.22
2022-12-12T18:34:16.917Z,-3.23
2022-12-12T18:36:44.871Z,-3.25
2022-12-12T18:39:12.891Z,-3.29
2022-12-12T18:41:41.990Z,-3.35
2022-12-12T18:44:13.014Z,-3.42
2022-12-12T18:46:43.476Z,-3.56
2022-12-12T18:49:13.632Z,-3.53
2022-12-12T18:51:41.803Z,-3.45
2022-12-12T18:54:14.732Z,-3.53
2022-12-12T18:56:45.688Z,-3.43
2022-12-12T18:59:14.470Z,-3.50
2022-12-12T19:01:42.348Z,-3.67
2022-12-12T19:04:14.118Z,-3.65
2022-12-12T19:06:44.384Z,-3.60
2022-12-12T19:09:15.096Z,-3.74
2022-12-12T19:11:44.648Z,-3.61
2022-12-12T19:14:15.549Z,-3.69
2022-12-12T19:16:44.259Z,-3.76
2022-12-12T19:19:12.719Z,-3.79
2022-12-12T19:21:40.872Z,-3.80
2022-12-12T19:24:12.075Z,-3.82
2022-12-12T19:26:41.114Z,-3.83
2022-12-12T19:29:13.678Z,-3.89
2022-12-12T19:31:41.434Z,-3.98
2022-12-12T19:34:11.608Z,-4.09
2022-12-12T19:36:40.291Z,-4.06
2022-12-12T19:39:08.986Z,-4.02
2022-12-12T19:41:38.361Z,-4.03
2022-12-12T19:44:08.906Z,-4.09
2022-12-12T19:46:37.883Z,-4.12
2022-12-12T19:49:08.708Z,-4.10
2022-12-12T19:51:39.281Z,-4.18
2022-12-12T19:54:09.983Z,-4.24
2022-12-12T19:56:40.857Z,-4.20
2022-12-12T19:59:09.542Z,-4.26
2022-12-12T20:01:39.015Z,-4.25
2022-12-12T20:04:09.514Z,-4.31
2022-12-12T20:06:44.665Z,-4.30
2022-12-12T20:09:13.764Z,-4.37
2022-12-12T20:11:43.433Z,-4.33
2022-12-12T20:14:14.619Z,-4.21
2022-12-12T20:16:44.108Z,-4.31
2022-12-12T20:19:13.645Z,-4.44
2022-12-12T20:22:00.782Z,-4.41
2022-12-12T20:24:29.981Z,-4.46
2022-12-12T20:26:59.417Z,-4.53
2022-12-12T20:29:27.426Z,-4.50
2022-12-12T20:31:56.924Z,-4.51
2022-12-12T20:34:25.275Z,-4.52
2022-12-12T20:36:55.526Z,-4.52
2022-12-12T20:39:24.737Z,-4.62
2022-12-12T20:41:54.211Z,-4.49
2022-12-12T20:44:22.413Z,-4.59
2022-12-12T20:46:49.995Z,-4.61
2022-12-12T20:49:22.349Z,-4.59
2022-12-12T20:51:58.637Z,-4.73
2022-12-12T20:54:29.422Z,-4.68
2022-12-12T20:56:58.432Z,-4.63
2022-12-12T20:59:26.481Z,-4.66
2022-12-12T21:01:54.581Z,-4.81
2022-12-12T21:04:24.100Z,-4.81
2022-12-12T21:06:52.303Z,-4.82
2022-12-12T21:09:25.974Z,-4.94
2022-12-12T21:11:55.377Z,-4.92
2022-12-12T21:14:23.273Z,-4.96
2022-12-12T21:16:51.963Z,-4.91
2022-12-12T21:19:19.817Z,-4.91
2022-12-12T21:21:48.788Z,-4.88
2022-12-12T21:24:17.953Z,-4.99
2022-12-12T21:26:45.768Z,-5.01
2022-12-12T21:29:13.988Z,-5.05
2022-12-12T21:31:49.952Z,-5.04
2022-12-12T21:34:20.475Z,-5.06
2022-12-12T21:36:51.057Z,-5.04
2022-12-12T21:39:18.834Z,-4.95
2022-12-12T21:41:47.063Z,-5.08
2022-12-12T21:44:14.677Z,-5.05
2022-12-12T21:46:44.023Z,-5.09
2022-12-12T21:49:25.891Z,-4.99
2022-12-12T21:51:55.681Z,-5.04
2022-12-12T21:54:23.581Z,-5.12
2022-12-12T21:56:51.174Z,-5.23
2022-12-12T21:59:18.781Z,-5.21
2022-12-12T22:01:46.380Z,-5.30
2022-12-12T22:04:14.257Z,-5.28
2022-12-12T22:06:41.824Z,-5.33
2022-12-12T22:09:12.484Z,-5.32
2022-12-12T22:11:50.074Z,-5.37
2022-12-12T22:14:21.717Z,-5.44
2022-12-12T22:16:49.910Z,-5.30
2022-12-12T22:19:18.395Z,-5.31
2022-12-12T22:21:47.449Z,-5.24
2022-12-12T22:24:17.042Z,-5.35
2022-12-12T22:26:46.748Z,-5.25
2022-12-12T22:29:16.182Z,-5.36
2022-12-12T22:31:45.775Z,-5.46
2022-12-12T22:34:15.570Z,-5.49
2022-12-12T22:36:43.948Z,-5.37
2022-12-12T22:39:16.805Z,-5.50
2022-12-12T22:41:45.019Z,-5.47
2022-12-12T22:44:16.564Z,-5.51
2022-12-12T22:46:44.939Z,-5.62
2022-12-12T22:49:14.283Z,-5.54
2022-12-12T22:51:42.547Z,-5.57
2022-12-12T22:54:10.351Z,-5.54
2022-12-12T22:56:40.684Z,-5.73
2022-12-12T22:59:09.696Z,-5.75
2022-12-12T23:01:37.286Z,-5.65
2022-12-12T23:04:05.477Z,-5.71
2022-12-12T23:06:34.808Z,-5.72
2022-12-12T23:09:05.297Z,-5.65
2022-12-12T23:11:34.181Z,-5.72
2022-12-12T23:14:07.202Z,-5.76
2022-12-12T23:16:35.995Z,-5.75
2022-12-12T23:19:05.422Z,-5.72
2022-12-12T23:21:33.571Z,-5.80
2022-12-12T23:24:01.244Z,-5.79
2022-12-12T23:26:30.605Z,-5.84
2022-12-12T23:28:59.033Z,-5.72
2022-12-12T23:31:29.575Z,-5.78
2022-12-12T23:33:59.423Z,-5.72
2022-12-12T23:36:28.295Z,-5.73
2022-12-12T23:38:56.547Z,-5.74
2022-12-12T23:41:24.660Z,-5.74
2022-12-12T23:43:52.649Z,-5.54
2022-12-12T23:46:29.201Z,-5.50
2022-12-12T23:49:00.181Z,-5.34
2022-12-12T23:51:30.893Z,-5.61
2022-12-12T23:53:59.655Z,-5.57
2022-12-12T23:56:28.673Z,-5.57
2022-12-12T23:58:58.111Z,-5.64
